sensor_id;sensor_type;location;lat;lon;timestamp;P1;durP1;ratioP1;P2;durP2;ratioP2
21014;SDS011;19207;-23.482;-46.500;2023-06-19T00:00:20;74.22;;;33.28;;
21014;SDS011;19207;-23.482;-46.500;2023-06-19T00:03:07;76.70;;;34.05;;
21014;SDS011;19207;-23.482;-46.500;2023-06-19T00:05:54;79.78;;;34.40;;
21014;SDS011;19207;-23.482;-46.500;2023-06-19T00:08:41;71.37;;;31.85;;
21014;SDS011;19207;-23.482;-46.500;2023-06-19T00:11:29;65.15;;;30.73;;
21014;SDS011;19207;-23.482;-46.500;2023-06-19T00:14:16;62.17;;;30.85;;
21014;SDS011;19207;-23.482;-46.500;2023-06-19T00:17:03;65.28;;;30.55;;
21014;SDS011;19207;-23.482;-46.500;2023-06-19T00:19:51;66.28;;;28.38;;
21014;SDS011;19207;-23.482;-46.500;2023-06-19T00:22:38;55.50;;;26.70;;
21014;SDS011;19207;-23.482;-46.500;2023-06-19T00:25:25;60.63;;;25.37;;
21014;SDS011;19207;-23.482;-46.500;2023-06-19T00:28:13;53.50;;;26.23;;
21014;SDS011;19207;-23.482;-46.500;2023-06-19T00:31:06;55.78;;;25.75;;
21014;SDS011;19207;-23.482;-46.500;2023-06-19T00:33:53;51.78;;;24.67;;
21014;SDS011;19207;-23.482;-46.500;2023-06-19T00:36:40;59.42;;;25.30;;
21014;SDS011;19207;-23.482;-46.500;2023-06-19T00:39:28;52.22;;;25.37;;
21014;SDS011;19207;-23.482;-46.500;2023-06-19T00:42:15;53.17;;;26.17;;
21014;SDS011;19207;-23.482;-46.500;2023-06-19T00:45:02;52.05;;;24.65;;
21014;SDS011;19207;-23.482;-46.500;2023-06-19T00:47:50;50.53;;;23.92;;
21014;SDS011;19207;-23.482;-46.500;2023-06-19T00:50:37;54.65;;;24.42;;
21014;SDS011;19207;-23.482;-46.500;2023-06-19T00:53:24;51.25;;;23.60;;
21014;SDS011;19207;-23.482;-46.500;2023-06-19T00:56:12;52.15;;;24.48;;
21014;SDS011;19207;-23.482;-46.500;2023-06-19T00:59:00;56.45;;;24.58;;
21014;SDS011;19207;-23.482;-46.500;2023-06-19T01:01:48;53.40;;;24.70;;
21014;SDS011;19207;-23.482;-46.500;2023-06-19T01:04:35;53.80;;;25.17;;
21014;SDS011;19207;-23.482;-46.500;2023-06-19T01:10:29;59.20;;;26.55;;
21014;SDS011;19207;-23.482;-46.500;2023-06-19T01:13:24;63.60;;;27.50;;
21014;SDS011;19207;-23.482;-46.500;2023-06-19T01:16:14;72.03;;;27.02;;
21014;SDS011;19207;-23.482;-46.500;2023-06-19T01:19:01;51.83;;;24.33;;
21014;SDS011;19207;-23.482;-46.500;2023-06-19T01:21:49;66.82;;;25.65;;
21014;SDS011;19207;-23.482;-46.500;2023-06-19T01:24:36;72.62;;;24.95;;
21014;SDS011;19207;-23.482;-46.500;2023-06-19T01:27:42;69.53;;;25.77;;
21014;SDS011;19207;-23.482;-46.500;2023-06-19T01:30:29;63.85;;;25.23;;
21014;SDS011;19207;-23.482;-46.500;2023-06-19T01:33:18;63.85;;;25.23;;
21014;SDS011;19207;-23.482;-46.500;2023-06-19T01:36:07;73.60;;;27.23;;
21014;SDS011;19207;-23.482;-46.500;2023-06-19T01:38:55;74.95;;;29.20;;
21014;SDS011;19207;-23.482;-46.500;2023-06-19T01:41:44;81.43;;;29.25;;
21014;SDS011;19207;-23.482;-46.500;2023-06-19T01:44:32;78.25;;;30.05;;
21014;SDS011;19207;-23.482;-46.500;2023-06-19T01:47:19;78.00;;;28.90;;
21014;SDS011;19207;-23.482;-46.500;2023-06-19T01:50:07;73.47;;;27.52;;
21014;SDS011;19207;-23.482;-46.500;2023-06-19T01:52:55;67.62;;;25.02;;
21014;SDS011;19207;-23.482;-46.500;2023-06-19T01:55:42;63.87;;;24.70;;
21014;SDS011;19207;-23.482;-46.500;2023-06-19T01:58:29;71.50;;;26.45;;
21014;SDS011;19207;-23.482;-46.500;2023-06-19T02:01:16;74.55;;;26.80;;
21014;SDS011;19207;-23.482;-46.500;2023-06-19T02:04:03;68.28;;;26.27;;
21014;SDS011;19207;-23.482;-46.500;2023-06-19T02:06:49;69.35;;;23.50;;
21014;SDS011;19207;-23.482;-46.500;2023-06-19T02:09:37;65.18;;;23.10;;
21014;SDS011;19207;-23.482;-46.500;2023-06-19T02:12:27;61.33;;;24.92;;
21014;SDS011;19207;-23.482;-46.500;2023-06-19T02:15:15;57.03;;;23.87;;
21014;SDS011;19207;-23.482;-46.500;2023-06-19T02:18:02;59.30;;;22.85;;
21014;SDS011;19207;-23.482;-46.500;2023-06-19T02:20:50;62.70;;;21.95;;
21014;SDS011;19207;-23.482;-46.500;2023-06-19T02:23:37;59.22;;;21.77;;
21014;SDS011;19207;-23.482;-46.500;2023-06-19T02:26:24;65.97;;;23.58;;
21014;SDS011;19207;-23.482;-46.500;2023-06-19T02:29:14;63.45;;;21.87;;
21014;SDS011;19207;-23.482;-46.500;2023-06-19T02:32:01;66.80;;;25.35;;
21014;SDS011;19207;-23.482;-46.500;2023-06-19T02:34:48;58.28;;;22.08;;
21014;SDS011;19207;-23.482;-46.500;2023-06-19T02:37:35;53.47;;;21.42;;
21014;SDS011;19207;-23.482;-46.500;2023-06-19T02:40:22;55.95;;;23.10;;
21014;SDS011;19207;-23.482;-46.500;2023-06-19T02:43:09;54.35;;;20.80;;
21014;SDS011;19207;-23.482;-46.500;2023-06-19T02:45:57;58.47;;;22.05;;
21014;SDS011;19207;-23.482;-46.500;2023-06-19T02:48:43;60.72;;;22.50;;
21014;SDS011;19207;-23.482;-46.500;2023-06-19T02:51:30;56.83;;;22.67;;
21014;SDS011;19207;-23.482;-46.500;2023-06-19T02:54:17;60.40;;;22.90;;
